Time;durP1;ratioP1;P1;durP2;ratioP2;P2;SDS_P1;SDS_P2;PMS_P1;PMS_P2;Temp;Humidity;BMP_temperature;BMP_pressure;BME280_temperature;BME280_humidity;BME280_pressure;Samples;Min_cycle;Max_cycle;Signal;HPM_P1;HPM_P2
2022/09/11 00:00:42;;;;;;;13.52;10.80;;;;;;;20.50;98.39;100114.41;5035206;28;20060;-73
2022/09/11 00:03:08;;;;;;;18.95;11.27;;;;;;;19.67;98.78;99971.63;5032725;28;20033;-71
2022/09/11 00:05:40;;;;;;;15.65;12.32;;;;;;;20.33;99.04;100088.53;5033317;28;20044;-73
2022/09/11 00:08:07;;;;;;;20.47;12.40;;;;;;;19.71;98.89;99973.22;5033187;28;20126;-73
2022/09/11 00:10:38;;;;;;;18.63;11.63;;;;;;;20.40;99.14;100105.13;5029592;28;20052;-72
2022/09/11 00:13:13;;;;;;;15.95;11.77;;;;;;;19.51;98.45;99955.47;5033035;28;20061;-75
2022/09/11 00:15:43;;;;;;;15.45;11.45;;;;;;;19.67;98.25;99979.63;5033674;28;20035;-73
2022/09/11 00:18:12;;;;;;;15.88;12.18;;;;;;;19.78;98.12;99984.47;5035881;28;20037;-73
2022/09/11 00:20:38;;;;;;;17.13;11.90;;;;;;;20.17;98.87;100071.50;5033315;28;20087;-74
2022/09/11 00:23:05;;;;;;;22.27;13.30;;;;;;;20.07;99.13;100044.44;5032058;28;20052;-74
2022/09/11 00:25:35;;;;;;;19.33;13.27;;;;;;;19.46;99.79;99951.28;5022097;28;20061;-73
2022/09/11 00:28:01;;;;;;;18.10;13.43;;;;;;;19.86;100.00;100022.28;4999467;28;20048;-73
2022/09/11 00:30:27;;;;;;;16.45;14.82;;;;;;;20.18;100.00;100054.59;5019821;28;20546;-73
2022/09/11 00:32:52;;;;;;;17.92;14.65;;;;;;;19.40;100.00;99950.59;5016391;28;20061;-74
2022/09/11 00:35:18;;;;;;;20.50;14.68;;;;;;;20.23;100.00;100095.22;5019844;28;20037;-74
2022/09/11 00:37:43;;;;;;;18.63;15.30;;;;;;;19.77;100.00;100020.03;4993423;28;20144;-75
2022/09/11 00:40:09;;;;;;;22.00;15.25;;;;;;;19.55;100.00;99982.78;5019164;28;20040;-74
2022/09/11 00:42:35;;;;;;;18.17;16.17;;;;;;;20.14;100.00;100092.97;5019048;28;20025;-74
2022/09/11 00:45:06;;;;;;;21.08;15.98;;;;;;;19.87;100.00;100042.66;5017104;28;20103;-75
2022/09/11 00:47:32;;;;;;;25.13;17.38;;;;;;;19.91;100.00;100046.91;5020299;28;20049;-73
2022/09/11 00:50:12;;;;;;;25.25;17.50;;;;;;;20.15;100.00;100081.38;5018779;28;20587;-74
2022/09/11 00:52:45;;;;;;;23.85;17.85;;;;;;;19.40;100.00;99941.78;5015609;28;20771;-74
2022/09/11 00:55:17;;;;;;;26.60;18.87;;;;;;;19.97;100.00;100046.66;5014348;28;20067;-74
2022/09/11 00:57:50;;;;;;;19.95;17.75;;;;;;;19.98;100.00;100024.41;4996765;28;20083;-73
2022/09/11 01:00:16;;;;;;;35.13;18.83;;;;;;;20.16;100.00;100064.47;4997676;28;20088;-73
2022/09/11 01:02:47;;;;;;;23.80;17.98;;;;;;;20.10;100.00;100060.25;4996771;28;20144;-73
2022/09/11 01:05:13;;;;;;;22.42;18.55;;;;;;;19.62;100.00;99994.94;5014553;28;20041;-73
2022/09/11 01:07:40;;;;;;;22.45;19.25;;;;;;;19.22;100.00;99935.44;5011943;28;20068;-75
2022/09/11 01:10:09;;;;;;;30.50;15.80;;;;;;;20.04;100.00;100063.19;5011173;28;20045;-74
2022/09/11 01:12:40;;;;;;;21.77;17.05;;;;;;;20.06;100.00;100073.78;4999135;28;20397;-74
2022/09/11 01:15:13;;;;;;;29.23;18.13;;;;;;;19.89;100.00;100040.78;5019163;28;20038;-74
2022/09/11 01:18:18;;;;;;;25.30;20.65;;;;;;;20.06;100.00;100071.13;5017017;28;20052;-73
2022/09/11 01:21:05;;;;;;;22.15;17.40;;;;;;;20.06;100.00;100073.78;5007014;28;20049;-73
2022/09/11 01:23:48;;;;;;;26.60;19.92;;;;;;;20.03;100.00;100085.44;5015370;28;20172;-74
2022/09/11 01:26:55;;;;;;;31.27;20.73;;;;;;;20.02;100.00;100079.25;5024735;28;20044;-75
2022/09/11 01:29:34;;;;;;;28.33;18.65;;;;;;;19.67;100.00;100040.84;5033062;28;20052;-74
2022/09/11 01:32:13;;;;;;;26.95;20.98;;;;;;;19.58;100.00;100041.25;5015634;28;20045;-74
2022/09/11 01:34:50;;;;;;;31.83;20.75;;;;;;;19.06;100.00;99956.53;5035306;28;20087;-75
2022/09/11 01:37:28;;;;;;;25.70;19.73;;;;;;;19.18;100.00;99955.16;5028050;28;20153;-73
2022/09/11 01:40:01;;;;;;;25.65;19.42;;;;;;;19.77;100.00;100079.47;5034578;28;20040;-73
2022/09/11 01:42:31;;;;;;;25.92;21.50;;;;;;;19.78;100.00;100064.34;5035192;28;20128;-74
2022/09/11 01:44:58;;;;;;;25.27;22.02;;;;;;;19.34;100.00;99995.28;5032969;28;20045;-74
2022/09/11 01:47:24;;;;;;;24.83;20.73;;;;;;;19.08;100.00;99983.94;5033123;28;20044;-74
2022/09/11 01:50:00;;;;;;;27.60;20.00;;;;;;;19.58;100.00;100068.72;5035053;28;20044;-74
2022/09/11 01:52:44;;;;;;;24.95;19.30;;;;;;;19.34;100.00;100016.56;5015728;28;20206;-73
2022/09/11 01:55:19;;;;;;;25.33;18.33;;;;;;;18.67;100.00;99946.59;5032073;28;20064;-73
2022/09/11 01:57:55;;;;;;;33.67;20.23;;;;;;;19.40;100.00;100072.16;5033810;28;20037;-74
2022/09/11 02:00:20;;;;;;;22.08;18.60;;;;;;;19.59;100.00;100077.56;5015137;28;20036;-73
2022/09/11 02:02:54;;;;;;;23.35;18.85;;;;;;;18.58;100.00;99932.81;5033451;28;20350;-73
2022/09/11 02:05:40;;;;;;;25.98;17.38;;;;;;;19.09;100.00;100001.63;5033234;28;20052;-73
2022/09/11 02:08:31;;;;;;;35.70;18.45;;;;;;;19.44;100.00;100076.44;5033480;28;20485;-74
2022/09/11 02:11:05;;;;;;;23.27;17.90;;;;;;;19.46;100.00;100081.69;5024286;28;20124;-75
2022/09/11 02:13:37;;;;;;;25.20;18.48;;;;;;;18.47;100.00;99933.25;5035538;28;20404;-73
2022/09/11 02:16:43;;;;;;;23.95;20.35;;;;;;;19.29;100.00;100072.63;5035260;28;20079;-74
2022/09/11 02:19:15;;;;;;;19.77;16.40;;;;;;;19.42;100.00;100072.09;5011451;28;20080;-73
2022/09/11 02:21:42;;;;;;;24.20;18.40;;;;;;;19.29;100.00;100069.06;5027139;28;20044;-73
2022/09/11 02:24:09;;;;;;;24.13;18.25;;;;;;;18.45;100.00;99929.78;5016681;28;20033;-74
2022/09/11 02:26:41;;;;;;;23.13;19.25;;;;;;;19.25;100.00;100075.47;5034903;28;20041;-75
2022/09/11 02:29:07;;;;;;;23.48;18.90;;;;;;;19.08;100.00;100069.03;5034042;28;20053;-74
2022/09/11 02:31:34;;;;;;;26.92;19.92;;;;;;;19.21;100.00;100069.41;5032494;28;20057;-73
2022/09/11 02:33:59;;;;;;;23.98;19.98;;;;;;;18.98;100.00;100071.19;5014646;28;20052;-74
2022/09/11 02:36:53;;;;;;;22.30;17.73;;;;;;;18.99;100.00;100072.06;5017336;28;20041;-73
2022/09/11 02:39:39;;;;;;;20.20;17.17;;;;;;;18.98;100.00;100059.69;5033941;28;20053;-73
2022/09/11 02:42:23;;;;;;;22.75;17.98;;;;;;;18.54;100.00;100011.78;5032718;28;20492;-73
2022/09/11 02:44:53;;;;;;;25.00;15.82;;;;;;;18.85;100.00;100077.94;5032020;28;20077;-73
2022/09/11 02:47:41;;;;;;;21.35;14.48;;;;;;;18.82;100.00;100058.56;5032027;28;20124;-73
2022/09/11 02:50:24;;;;;;;28.05;15.48;;;;;;;17.85;100.00;99940.94;5030755;28;20052;-74
2022/09/11 02:52:57;;;;;;;19.30;13.38;;;;;;;18.28;100.00;100031.38;5033692;28;20048;-73
2022/09/11 02:55:44;;;;;;;26.70;13.68;;;;;;;18.62;100.00;100070.81;5035035;28;20136;-73
2022/09/11 02:58:25;;;;;;;18.70;12.55;;;;;;;17.16;100.00;99832.06;5033937;28;20056;-75
2022/09/11 03:00:52;;;;;;;15.48;12.27;;;;;;;17.78;100.00;99934.09;5033213;28;20033;-73
2022/09/11 03:03:20;;;;;;;16.30;13.57;;;;;;;18.21;100.00;100045.81;5015698;28;20037;-73
2022/09/11 03:05:46;;;;;;;15.93;12.45;;;;;;;18.33;100.00;100062.19;5034412;28;20686;-74
2022/09/11 03:08:13;;;;;;;18.55;13.23;;;;;;;18.33;100.00;100059.53;5034396;28;20065;-76
2022/09/11 03:10:39;;;;;;;15.82;12.98;;;;;;;18.28;100.00;100064.13;5033977;28;20056;-74
2022/09/11 03:13:04;;;;;;;19.90;11.63;;;;;;;18.20;100.00;100044.09;5031680;28;20049;-74
2022/09/11 03:15:30;;;;;;;13.38;10.77;;;;;;;17.57;99.60;99929.59;5033040;28;20562;-73
2022/09/11 03:17:56;;;;;;;21.30;12.05;;;;;;;18.19;100.00;100034.38;5033988;28;20104;-75
2022/09/11 03:20:22;;;;;;;14.32;11.27;;;;;;;18.21;100.00;100062.63;5035301;28;20119;-75
2022/09/11 03:22:47;;;;;;;16.02;11.80;;;;;;;18.19;100.00;100072.47;5038361;28;20132;-74
2022/09/11 03:25:14;;;;;;;14.75;11.55;;;;;;;17.28;100.00;99902.34;5036553;28;20098;-74
2022/09/11 03:27:40;;;;;;;19.85;13.13;;;;;;;18.17;100.00;100084.94;5017230;28;20099;-75
2022/09/11 03:30:07;;;;;;;15.38;11.30;;;;;;;18.09;99.53;100084.31;5037579;28;20111;-75
2022/09/11 03:32:32;;;;;;;14.88;12.43;;;;;;;17.88;99.65;100088.63;5036272;28;20055;-75
2022/09/11 03:35:00;;;;;;;20.45;12.88;;;;;;;17.82;100.00;100088.84;5037375;28;20053;-74
2022/09/11 03:37:25;;;;;;;23.27;12.00;;;;;;;17.98;100.00;100090.03;5036642;28;20143;-73
2022/09/11 03:39:53;;;;;;;13.55;10.88;;;;;;;17.77;100.00;100082.78;5035896;28;20515;-74
2022/09/11 03:42:19;;;;;;;12.82;10.20;;;;;;;17.84;100.00;100101.16;5018162;28;20037;-74
2022/09/11 03:44:44;;;;;;;23.48;13.20;;;;;;;16.96;99.97;99928.19;5037110;28;20507;-74
2022/09/11 03:47:10;;;;;;;17.45;11.65;;;;;;;17.24;99.88;99996.19;5034571;28;20095;-73
2022/09/11 03:49:36;;;;;;;22.48;12.10;;;;;;;17.02;99.39;99961.56;5036550;28;20052;-74
2022/09/11 03:52:03;;;;;;;14.40;10.85;;;;;;;17.03;99.24;99990.69;5037495;28;20045;-73
2022/09/11 03:54:28;;;;;;;13.95;12.50;;;;;;;17.61;99.56;100109.84;5018401;28;20033;-75
2022/09/11 03:56:54;;;;;;;15.10;9.88;;;;;;;17.67;99.16;100106.13;5036928;28;21977;-74
2022/09/11 03:59:20;;;;;;;16.80;11.35;;;;;;;17.32;99.02;100052.47;5016487;28;20528;-74
2022/09/11 04:01:48;;;;;;;17.52;10.85;;;;;;;17.63;99.23;100115.09;5035055;28;20053;-73
2022/09/11 04:04:14;;;;;;;12.82;10.63;;;;;;;16.19;98.74;99866.25;5036894;28;20096;-74
2022/09/11 04:06:40;;;;;;;14.10;10.80;;;;;;;17.16;98.88;100056.53;5036927;28;20025;-74
2022/09/11 04:09:07;;;;;;;14.98;10.98;;;;;;;17.40;99.77;100114.09;5037874;28;21703;-75
2022/09/11 04:11:37;;;;;;;13.70;11.55;;;;;;;16.64;100.00;99964.53;5036086;28;20041;-76
2022/09/11 04:14:03;;;;;;;15.23;11.02;;;;;;;17.42;99.67;100114.91;5031938;28;20615;-75
2022/09/11 04:16:31;;;;;;;14.68;12.13;;;;;;;16.66;99.45;99985.69;5029976;28;20055;-74
2022/09/11 04:18:59;;;;;;;20.80;11.57;;;;;;;17.40;99.22;100098.19;5034953;28;20068;-75
2022/09/11 04:21:24;;;;;;;25.52;11.07;;;;;;;17.35;98.74;100121.34;5036456;28;20037;-73
2022/09/11 04:23:52;;;;;;;18.50;12.43;;;;;;;17.00;99.10;100058.84;5018512;28;20083;-74
2022/09/11 04:26:20;;;;;;;12.63;10.18;;;;;;;17.50;99.18;100127.91;5025637;28;20084;-74
2022/09/11 04:28:46;;;;;;;14.90;11.38;;;;;;;16.45;99.05;99989.88;5022558;28;20449;-73
2022/09/11 04:31:13;;;;;;;17.80;11.25;;;;;;;16.59;98.93;100005.34;5022328;28;20052;-74
2022/09/11 04:33:40;;;;;;;12.65;9.48;;;;;;;17.49;98.19;100126.19;5026065;28;20025;-75
2022/09/11 04:36:07;;;;;;;13.07;10.80;;;;;;;16.63;97.89;99993.72;5025500;28;20025;-75
2022/09/11 04:38:32;;;;;;;14.23;11.20;;;;;;;17.47;98.85;100131.53;5021060;28;20052;-73
2022/09/11 04:41:02;;;;;;;15.20;10.90;;;;;;;16.81;98.07;100016.13;5022138;28;20692;-75
2022/09/11 04:43:32;;;;;;;17.98;13.25;;;;;;;17.51;97.19;100149.09;5002410;28;20107;-75
2022/09/11 04:46:12;;;;;;;14.65;10.65;;;;;;;17.24;97.61;100111.06;5023823;28;20057;-76
2022/09/11 04:48:52;;;;;;;22.88;12.43;;;;;;;17.35;97.32;100115.13;5025133;28;20030;-75
2022/09/11 04:51:20;;;;;;;16.98;10.35;;;;;;;17.55;97.81;100135.72;5020718;28;20056;-73
2022/09/11 04:53:46;;;;;;;20.20;11.38;;;;;;;17.22;97.41;100104.94;5021730;28;20127;-74
2022/09/11 04:56:14;;;;;;;18.65;11.38;;;;;;;17.49;96.71;100139.47;5024727;28;20412;-75
2022/09/11 04:58:41;;;;;;;15.15;12.55;;;;;;;17.35;97.02;100104.53;5019190;28;20076;-74
2022/09/11 05:01:08;;;;;;;11.68;10.00;;;;;;;17.62;97.18;100126.63;5021561;28;20489;-73
2022/09/11 05:03:34;;;;;;;17.42;10.95;;;;;;;17.67;96.66;100128.19;5021977;28;20037;-74
2022/09/11 05:06:15;;;;;;;15.32;10.45;;;;;;;17.58;96.21;100115.25;5019907;28;20041;-76
2022/09/11 05:08:45;;;;;;;16.30;10.77;;;;;;;16.80;95.92;99998.53;5002856;28;20050;-76
2022/09/11 05:11:15;;;;;;;16.98;12.40;;;;;;;17.54;95.16;100150.78;5002367;28;20053;-76
2022/09/11 05:13:41;;;;;;;17.38;11.80;;;;;;;17.17;95.06;100023.81;5020321;28;20080;-76
2022/09/11 05:16:10;;;;;;;16.45;11.00;;;;;;;18.86;90.32;100135.50;5022353;28;20472;-74
2022/09/11 05:18:38;;;;;;;12.93;10.80;;;;;;;19.18;84.99;100008.34;5021530;28;20132;-75
2022/09/11 05:21:06;;;;;;;17.58;11.48;;;;;;;20.23;82.39;100097.91;5023229;28;20056;-74
2022/09/11 05:23:32;;;;;;;14.48;9.38;;;;;;;21.08;79.00;100154.38;5023954;28;20252;-76
2022/09/11 05:25:59;;;;;;;15.65;8.98;;;;;;;20.80;76.07;100024.16;5017517;28;20662;-75
2022/09/11 05:28:26;;;;;;;14.15;10.68;;;;;;;21.49;74.01;100055.44;5014808;28;20120;-76
2022/09/11 05:30:53;;;;;;;12.13;9.30;;;;;;;21.59;73.53;100023.78;5014271;28;20033;-76
2022/09/11 05:33:22;;;;;;;18.15;8.48;;;;;;;21.65;71.60;100011.91;5015862;28;20029;-76
2022/09/11 05:35:49;;;;;;;12.55;9.45;;;;;;;22.31;71.44;100094.84;5016708;28;20037;-76
2022/09/11 05:38:16;;;;;;;10.88;8.68;;;;;;;22.61;71.06;100155.59;5013226;28;21883;-76
2022/09/11 05:40:48;;;;;;;12.40;9.02;;;;;;;22.28;69.63;100029.97;5014759;28;20183;-76
2022/09/11 05:43:14;;;;;;;13.82;10.00;;;;;;;23.03;69.09;100116.75;4996657;28;20120;-76
2022/09/11 05:45:41;;;;;;;9.88;8.30;;;;;;;23.14;69.20;100159.00;5015747;28;20053;-75
2022/09/11 05:48:07;;;;;;;10.85;7.28;;;;;;;23.27;67.53;100098.44;5015773;28;20067;-75
2022/09/11 05:50:33;;;;;;;21.05;8.95;;;;;;;22.80;67.83;100031.53;5015605;28;20056;-74
2022/09/11 05:52:59;;;;;;;17.50;9.10;;;;;;;23.02;68.59;100055.31;5014692;28;20050;-74
2022/09/11 05:55:24;;;;;;;25.35;9.20;;;;;;;23.44;67.16;100108.19;5014543;28;20121;-74
2022/09/11 05:57:53;;;;;;;13.57;9.35;;;;;;;22.79;67.06;100028.00;5012475;28;20791;-75
2022/09/11 06:00:20;;;;;;;12.85;7.28;;;;;;;23.23;67.47;100126.34;4999831;28;20568;-76
2022/09/11 06:02:47;;;;;;;9.75;7.80;;;;;;;23.41;66.76;100121.72;5014915;28;20037;-74
2022/09/11 06:05:14;;;;;;;12.60;7.88;;;;;;;22.72;67.50;100026.63;5015990;28;20045;-76
2022/09/11 06:07:39;;;;;;;11.32;9.05;;;;;;;23.00;68.91;100116.94;5013087;28;20042;-75
2022/09/11 06:10:06;;;;;;;13.45;8.98;;;;;;;22.85;69.64;100132.03;5015366;28;21590;-74
2022/09/11 06:12:31;;;;;;;11.13;8.23;;;;;;;22.72;70.22;100142.50;5016398;28;20041;-74
2022/09/11 06:14:57;;;;;;;10.57;7.82;;;;;;;21.74;72.27;100030.13;5014161;28;20073;-75
2022/09/11 06:17:23;;;;;;;11.45;7.95;;;;;;;22.01;70.86;100089.28;5014884;28;20080;-73
2022/09/11 06:19:48;;;;;;;10.88;8.57;;;;;;;21.91;72.69;100153.00;4996044;28;20100;-75
2022/09/11 06:22:14;;;;;;;13.52;6.93;;;;;;;21.93;71.83;100153.78;5015094;28;20050;-74
2022/09/11 06:24:39;;;;;;;9.13;7.05;;;;;;;21.85;72.22;100123.94;5016247;28;20068;-75
2022/09/11 06:27:05;;;;;;;13.40;6.95;;;;;;;21.17;73.00;100050.84;5034628;28;20465;-72
2022/09/11 06:29:31;;;;;;;10.48;6.68;;;;;;;20.89;73.69;100028.19;5016449;28;20052;-75
2022/09/11 06:31:58;;;;;;;14.93;7.32;;;;;;;21.78;73.37;100154.56;5034716;28;20037;-76
2022/09/11 06:34:24;;;;;;;10.85;6.35;;;;;;;21.70;74.18;100157.63;5029701;28;20048;-74
2022/09/11 06:36:50;;;;;;;10.40;7.95;;;;;;;21.47;74.91;100148.09;5034868;28;20041;-76
2022/09/11 06:39:15;;;;;;;14.38;7.55;;;;;;;21.32;76.45;100143.47;5016949;28;20112;-77
2022/09/11 06:41:42;;;;;;;10.20;7.22;;;;;;;21.52;76.32;100146.97;5034561;28;20044;-77
2022/09/11 06:44:08;;;;;;;10.57;7.35;;;;;;;21.28;75.71;100125.88;5016835;28;20045;-75
2022/09/11 06:46:35;;;;;;;12.38;8.55;;;;;;;20.71;75.69;100043.25;5019459;28;20041;-75
2022/09/11 06:49:01;;;;;;;13.30;6.65;;;;;;;20.53;75.43;100007.63;5012080;28;20048;-76
2022/09/11 06:51:27;;;;;;;10.57;7.25;;;;;;;21.49;76.00;100151.56;5034398;28;20524;-75
2022/09/11 06:53:56;;;;;;;13.70;9.15;;;;;;;21.10;76.56;100086.75;5015820;28;20055;-75
2022/09/11 06:56:22;;;;;;;12.23;7.63;;;;;;;21.47;76.51;100148.09;5036925;28;20079;-74
2022/09/11 06:58:49;;;;;;;20.38;8.15;;;;;;;21.29;76.49;100122.28;5037306;28;20409;-75
2022/09/11 07:01:17;;;;;;;12.73;7.80;;;;;;;21.38;75.65;100123.63;5038555;28;20041;-75
2022/09/11 07:03:46;;;;;;;10.70;7.20;;;;;;;21.43;74.66;100143.84;5038033;28;20073;-75
2022/09/11 07:06:13;;;;;;;16.00;7.07;;;;;;;21.39;74.82;100150.22;5020591;28;20451;-74
2022/09/11 07:08:39;;;;;;;8.77;7.15;;;;;;;21.52;74.74;100152.31;5037140;28;20037;-77
2022/09/11 07:11:06;;;;;;;10.52;6.13;;;;;;;20.79;73.43;100030.44;5036004;28;20083;-76
2022/09/11 07:13:38;;;;;;;9.48;6.55;;;;;;;21.26;73.89;100114.44;5005594;28;20135;-77
2022/09/11 07:16:08;;;;;;;10.00;6.15;;;;;;;20.91;73.51;100041.41;5038359;28;20068;-75
2022/09/11 07:18:39;;;;;;;9.32;5.97;;;;;;;21.01;73.24;100029.38;5038121;28;20396;-75
2022/09/11 07:21:06;;;;;;;7.25;6.38;;;;;;;21.52;73.62;100129.19;5036975;28;20049;-75
2022/09/11 07:23:33;;;;;;;12.77;7.10;;;;;;;21.80;73.59;100167.88;5038063;28;20098;-75
2022/09/11 07:26:07;;;;;;;7.90;5.68;;;;;;;21.04;73.08;100023.88;5027081;28;20517;-77
2022/09/11 07:28:33;;;;;;;9.18;6.13;;;;;;;20.99;74.40;100048.13;5019764;28;20065;-74
2022/09/11 07:31:11;;;;;;;8.55;5.88;;;;;;;20.97;72.96;100035.78;5021416;28;20045;-75
2022/09/11 07:33:38;;;;;;;9.20;5.78;;;;;;;21.19;71.94;100078.28;5000580;28;20373;-76
2022/09/11 07:36:13;;;;;;;12.05;5.38;;;;;;;21.85;71.96;100152.47;5003172;28;20630;-75
2022/09/11 07:38:39;;;;;;;23.85;5.95;;;;;;;21.09;72.26;100027.19;5019547;28;20046;-75
2022/09/11 07:41:07;;;;;;;8.35;5.47;;;;;;;21.46;73.09;100057.41;4995906;28;20102;-74
2022/09/11 07:43:36;;;;;;;8.25;5.40;;;;;;;21.54;71.78;100057.00;5016539;28;20064;-74
2022/09/11 07:46:04;;;;;;;6.28;4.75;;;;;;;22.12;70.63;100150.16;5019789;28;20073;-80
2022/09/11 07:48:30;;;;;;;8.57;5.72;;;;;;;22.43;74.22;100146.78;5021516;28;20037;-79
2022/09/11 07:51:01;;;;;;;6.55;4.38;;;;;;;21.70;67.37;100034.78;5019453;28;20494;-79
2022/09/11 07:53:27;;;;;;;6.80;4.35;;;;;;;22.00;73.03;100010.03;5020822;28;20049;-73
2022/09/11 07:55:54;;;;;;;8.38;4.45;;;;;;;22.68;69.56;100098.16;5017435;28;20140;-81
2022/09/11 07:58:20;;;;;;;10.07;5.10;;;;;;;22.96;70.68;100134.94;5020597;28;20042;-75
2022/09/11 08:00:46;;;;;;;22.02;5.18;;;;;;;22.19;67.26;100027.75;5019806;28;20366;-77
2022/09/11 08:03:11;;;;;;;12.52;5.15;;;;;;;22.36;70.02;100021.50;5015273;28;20083;-76
2022/09/11 08:05:37;;;;;;;15.18;3.72;;;;;;;22.20;67.95;100022.34;5015982;28;20119;-77
2022/09/11 08:08:02;;;;;;;5.82;4.15;;;;;;;23.14;67.13;100143.78;4999766;28;20069;-75
2022/09/11 08:10:28;;;;;;;14.93;4.88;;;;;;;23.13;67.27;100155.47;5016780;28;20057;-77
2022/09/11 08:12:53;;;;;;;5.22;2.95;;;;;;;21.97;61.94;100010.22;5020008;28;20056;-78
2022/09/11 08:15:20;;;;;;;10.48;4.10;;;;;;;22.88;67.99;100133.66;5013676;28;20532;-76
2022/09/11 08:17:46;;;;;;;6.28;4.40;;;;;;;23.09;66.98;100137.84;5001103;28;20128;-75
2022/09/11 08:20:12;;;;;;;8.30;3.75;;;;;;;23.18;67.72;100149.84;5029090;28;20049;-73
2022/09/11 08:22:38;;;;;;;7.55;4.40;;;;;;;23.33;66.68;100142.75;5027774;28;20373;-76
2022/09/11 08:25:04;;;;;;;5.53;3.67;;;;;;;22.49;62.39;100025.25;5003442;28;20055;-77
2022/09/11 08:27:29;;;;;;;6.88;3.67;;;;;;;23.20;59.49;100147.91;5016350;28;20092;-70
2022/09/11 08:29:55;;;;;;;5.75;3.47;;;;;;;22.61;62.18;100004.97;5011907;28;20049;-73
2022/09/11 08:32:21;;;;;;;6.97;5.00;;;;;;;23.53;60.12;100141.56;5013342;28;20069;-75
2022/09/11 08:34:46;;;;;;;7.90;3.10;;;;;;;23.51;58.60;100144.34;5011082;28;20045;-77
2022/09/11 08:37:12;;;;;;;9.82;3.30;;;;;;;23.18;58.69;100101.66;4991451;28;20037;-73
2022/09/11 08:39:38;;;;;;;6.57;4.07;;;;;;;22.81;57.74;100015.41;5009987;28;20568;-75
2022/09/11 08:42:15;;;;;;;6.32;3.78;;;;;;;23.39;59.81;100135.22;5015612;28;20072;-74
2022/09/11 08:44:50;;;;;;;5.75;3.50;;;;;;;23.04;58.02;100026.63;5016036;28;20049;-75
2022/09/11 08:47:23;;;;;;;7.40;3.50;;;;;;;23.58;59.33;100083.25;4996575;28;20144;-74
2022/09/11 08:50:00;;;;;;;6.70;4.47;;;;;;;23.82;58.12;100129.19;5015360;28;20132;-75
2022/09/11 08:52:26;;;;;;;11.85;4.78;;;;;;;23.82;62.09;100102.41;5009807;28;20053;-74
2022/09/11 08:54:56;;;;;;;8.38;5.45;;;;;;;23.67;64.10;100053.25;5011909;28;20036;-74
2022/09/11 08:57:27;;;;;;;8.77;3.83;;;;;;;23.96;60.25;100123.84;5012469;28;20033;-75
2022/09/11 09:00:11;;;;;;;6.95;4.25;;;;;;;23.93;57.97;100115.16;5013884;28;20037;-75
2022/09/11 09:02:55;;;;;;;6.05;3.90;;;;;;;23.96;56.89;100106.94;5011928;28;20528;-74
2022/09/11 09:05:31;;;;;;;6.50;3.67;;;;;;;23.41;56.41;100003.03;5015767;28;20052;-71
2022/09/11 09:08:26;;;;;;;8.45;4.20;;;;;;;24.10;58.74;100114.13;5017034;28;20834;-76
2022/09/11 09:11:08;;;;;;;5.40;3.58;;;;;;;23.52;56.02;99982.69;5009093;28;20064;-73
2022/09/11 09:13:50;;;;;;;8.77;3.63;;;;;;;24.21;63.72;100095.56;5012367;28;20052;-73
2022/09/11 09:16:33;;;;;;;11.18;6.30;;;;;;;24.32;59.49;100102.94;5013353;28;20057;-73
2022/09/11 09:19:39;;;;;;;6.70;3.95;;;;;;;24.41;62.96;100091.63;5013796;28;20390;-74
2022/09/11 09:22:24;;;;;;;7.70;4.47;;;;;;;24.50;61.57;100091.09;5010515;28;20049;-72
2022/09/11 09:24:59;;;;;;;10.02;5.25;;;;;;;24.46;62.75;100075.25;5013682;28;20036;-74
2022/09/11 09:27:45;;;;;;;8.63;3.33;;;;;;;24.53;55.58;100098.94;5033207;28;20041;-73
2022/09/11 09:30:18;;;;;;;8.55;3.80;;;;;;;23.96;55.70;99995.22;5032554;28;20076;-72
2022/09/11 09:32:54;;;;;;;8.32;4.15;;;;;;;24.50;59.70;100083.03;5024376;28;20457;-74
2022/09/11 09:35:28;;;;;;;6.65;3.47;;;;;;;24.57;56.45;100080.84;5030393;28;20183;-77
2022/09/11 09:37:53;;;;;;;8.55;3.50;;;;;;;24.42;55.52;100071.91;5032088;28;20449;-75
2022/09/11 09:40:23;;;;;;;6.55;4.38;;;;;;;23.96;58.17;99968.41;5030144;28;20050;-75
2022/09/11 09:42:48;;;;;;;5.75;3.22;;;;;;;24.50;54.30;100093.78;5030935;28;20028;-74
2022/09/11 09:45:33;;;;;;;7.40;4.15;;;;;;;24.63;55.14;100091.16;5033620;28;20028;-76
2022/09/11 09:48:00;;;;;;;9.18;3.67;;;;;;;24.71;60.41;100082.63;5030450;28;20028;-75
2022/09/11 09:50:34;;;;;;;9.85;3.63;;;;;;;24.87;54.35;100087.88;5037683;28;20033;-74
2022/09/11 09:53:27;;;;;;;9.13;5.45;;;;;;;24.89;60.54;100081.44;5034022;28;20032;-74
2022/09/11 09:55:55;;;;;;;11.38;6.88;;;;;;;24.43;60.41;99987.78;5030500;28;20973;-75
2022/09/11 09:58:37;;;;;;;8.15;3.00;;;;;;;24.91;55.75;100081.34;5034282;28;20040;-72
2022/09/11 10:01:25;;;;;;;13.68;9.48;;;;;;;25.02;58.95;100073.44;5034481;28;20064;-74
2022/09/11 10:04:09;;;;;;;15.75;13.15;;;;;;;24.41;56.33;99958.38;5035515;28;20093;-74
2022/09/11 10:06:35;;;;;;;12.65;8.07;;;;;;;25.05;54.72;100068.75;5035489;28;20035;-75
2022/09/11 10:09:01;;;;;;;26.75;14.15;;;;;;;25.09;57.38;100072.06;5042259;28;20377;-74
2022/09/11 10:11:28;;;;;;;17.02;10.93;;;;;;;24.75;56.38;100007.19;5028534;28;20128;-74
2022/09/11 10:13:54;;;;;;;10.50;8.18;;;;;;;24.63;54.75;99983.81;5034241;28;20326;-75
2022/09/11 10:16:24;;;;;;;14.55;8.13;;;;;;;25.22;54.26;100075.72;5027088;28;20049;-77
2022/09/11 10:18:52;;;;;;;14.38;10.50;;;;;;;25.18;53.55;100071.50;5027385;28;20619;-73
2022/09/11 10:21:21;;;;;;;6.20;3.17;;;;;;;25.23;50.31;100065.81;5027929;28;20508;-72
2022/09/11 10:23:56;;;;;;;14.60;10.20;;;;;;;25.39;52.16;100071.03;5034570;28;20064;-77
2022/09/11 10:26:31;;;;;;;20.33;16.75;;;;;;;25.56;51.18;100067.22;5029602;28;20063;-75
2022/09/11 10:29:06;;;;;;;23.67;18.92;;;;;;;25.35;54.95;99972.81;5015796;28;20049;-75
2022/09/11 10:31:35;;;;;;;13.98;11.20;;;;;;;25.42;53.45;99966.06;5032704;28;20049;-79
2022/09/11 10:34:01;;;;;;;4.25;2.58;;;;;;;25.64;48.46;100072.94;5029911;28;20361;-79
2022/09/11 10:36:28;;;;;;;22.40;16.95;;;;;;;26.06;53.15;100061.06;5011844;28;20045;-79
2022/09/11 10:38:57;;;;;;;18.10;9.43;;;;;;;26.07;50.23;99955.19;5036979;28;20080;-82
2022/09/11 10:41:25;;;;;;;5.90;2.63;;;;;;;26.41;47.35;100011.06;5040066;28;20041;-76
2022/09/11 10:44:00;;;;;;;3.97;2.72;;;;;;;26.55;47.58;99932.94;5037365;28;20060;-74
2022/09/11 10:46:28;;;;;;;6.13;4.15;;;;;;;27.55;48.26;100025.06;5039058;28;20123;-74
2022/09/11 10:49:07;;;;;;;4.63;2.97;;;;;;;27.79;47.20;100052.84;5041324;28;20048;-75
2022/09/11 10:51:39;;;;;;;9.65;3.50;;;;;;;27.26;45.61;100055.09;5039611;28;20053;-71
2022/09/11 10:54:22;;;;;;;25.50;9.52;;;;;;;27.58;49.51;100049.97;5038236;28;20112;-74
2022/09/11 10:56:54;;;;;;;7.95;4.47;;;;;;;27.27;45.25;100048.72;5040806;28;20041;-72
2022/09/11 10:59:25;;;;;;;7.95;4.80;;;;;;;26.84;46.36;99941.53;5024514;28;20095;-74
2022/09/11 11:01:51;;;;;;;11.88;8.90;;;;;;;27.21;46.23;99936.06;5053777;28;20048;-74
2022/09/11 11:04:16;;;;;;;3.72;2.53;;;;;;;27.08;47.55;99908.31;5015818;28;20465;-74
2022/09/11 11:06:58;;;;;;;7.35;3.70;;;;;;;27.94;46.86;100041.84;5035378;28;20404;-76
2022/09/11 11:09:55;;;;;;;5.20;2.85;;;;;;;27.68;43.76;100014.19;5033324;28;20115;-74
2022/09/11 11:12:35;;;;;;;5.25;2.67;;;;;;;27.29;42.78;99974.03;5028679;28;20123;-78
2022/09/11 11:15:04;;;;;;;5.82;2.22;;;;;;;27.94;44.36;100015.72;5041688;28;20033;-76
2022/09/11 11:17:35;;;;;;;5.47;2.00;;;;;;;27.98;42.48;100025.31;5030175;28;20034;-75
2022/09/11 11:20:22;;;;;;;4.90;2.38;;;;;;;28.12;43.30;100012.53;5030211;28;20040;-76
2022/09/11 11:23:11;;;;;;;4.43;2.45;;;;;;;27.74;42.92;100006.47;5037062;28;20441;-76
2022/09/11 11:25:49;;;;;;;7.60;2.63;;;;;;;27.44;42.19;100023.22;5039406;28;20044;-75
2022/09/11 11:28:40;;;;;;;8.82;3.10;;;;;;;26.66;41.01;99905.22;4994649;28;20857;-75
2022/09/11 11:31:08;;;;;;;19.80;3.03;;;;;;;27.49;41.39;100006.69;4968573;28;20620;-74